Covington, Texas
Current Conditions -  °F | °C
As of 8:15 AM on Thursday 29 Jan 2015 (Local Time) from KINJ Reporting Station
Clear Clear  
Wind Chill: 46°   Ceiling: Unl
Heat Index: 48°   Visibility: 10mi
Dew Point: 44°   Wind: 5mph
Humidity: 86%   Direction: 320°NW
Pressure: 30.2"   Gusts: NA
Location:  32.18°N, 97.26°W
Report Text: KINJ 291415Z AUTO 32004KT 10SM CLR 09/07 A3020 RMK AO2 T00870065
Loading
Personal Weather Stations






























Interactive Weather Map New forecast layout! Learn more

10-Day Weather Forecast

Advertisements
Track Severe Weather on mobile